Time;durP1;ratioP1;P1;durP2;ratioP2;P2;SDS_P1;SDS_P2;PMS_P1;PMS_P2;Temp;Humidity;BMP_temperature;BMP_pressure;BME280_temperature;BME280_humidity;BME280_pressure;Samples;Min_cycle;Max_cycle;Signal;HPM_P1;HPM_P2
2022/05/21 00:01:53;;;;;;;9.90;3.57;;;11.50;99.90;;;;;;5042098;28;20943;-53
2022/05/21 00:04:19;;;;;;;10.03;2.70;;;11.50;99.90;;;;;;5037217;28;20282;-53
2022/05/21 00:06:45;;;;;;;6.33;3.40;;;11.50;99.90;;;;;;5049309;28;21182;-53
2022/05/21 00:09:11;;;;;;;7.23;3.47;;;11.40;99.90;;;;;;5046852;28;20629;-53
2022/05/21 00:11:38;;;;;;;6.43;3.63;;;11.40;96.50;;;;;;5049354;28;20190;-52
2022/05/21 00:14:04;;;;;;;11.93;3.13;;;11.40;71.20;;;;;;5051332;28;20244;-53
2022/05/21 00:16:30;;;;;;;7.03;3.60;;;11.40;99.90;;;;;;5049858;28;20499;-52
2022/05/21 00:18:56;;;;;;;11.30;3.70;;;11.40;99.90;;;;;;5049121;28;20273;-53
2022/05/21 00:21:23;;;;;;;11.43;3.63;;;11.50;99.90;;;;;;5036519;28;20179;-53
2022/05/21 00:23:50;;;;;;;6.60;3.77;;;11.40;99.90;;;;;;5049324;28;20436;-53
2022/05/21 00:26:16;;;;;;;5.50;4.13;;;11.40;99.90;;;;;;5035190;28;20429;-53
2022/05/21 00:28:44;;;;;;;7.77;3.90;;;11.50;99.90;;;;;;5034630;28;20468;-53
2022/05/21 00:31:12;;;;;;;7.60;4.30;;;11.40;99.90;;;;;;5039022;28;20433;-53
2022/05/21 00:33:38;;;;;;;10.90;3.53;;;11.30;99.90;;;;;;5037840;28;20448;-53
2022/05/21 00:36:04;;;;;;;8.20;4.20;;;11.20;99.90;;;;;;5038204;28;21027;-53
2022/05/21 00:38:30;;;;;;;8.63;4.40;;;11.20;99.90;;;;;;5043590;28;20672;-53
2022/05/21 00:40:56;;;;;;;12.80;3.83;;;11.20;99.90;;;;;;5050699;28;20441;-53
2022/05/21 00:43:41;;;;;;;8.30;4.63;;;11.20;99.90;;;;;;5046967;28;20182;-53
2022/05/21 00:46:22;;;;;;;9.27;4.20;;;11.10;99.90;;;;;;5046626;28;20952;-53
2022/05/21 00:49:08;;;;;;;8.60;4.93;;;11.20;99.90;;;;;;5032113;28;20911;-53
2022/05/21 00:51:44;;;;;;;13.60;4.97;;;11.20;99.90;;;;;;5032076;28;21345;-52
2022/05/21 00:54:10;;;;;;;8.93;5.43;;;11.20;99.90;;;;;;5045241;28;20814;-53
2022/05/21 00:56:42;;;;;;;9.07;4.70;;;11.20;99.90;;;;;;5037909;28;20905;-53
2022/05/21 01:02:01;;;;;;;11.03;5.00;;;11.10;99.90;;;;;;5045626;28;20440;-53
2022/05/21 01:04:27;;;;;;;11.03;5.67;;;11.10;99.90;;;;;;5023511;28;20455;-53
2022/05/21 01:06:56;;;;;;;11.57;5.20;;;11.10;99.90;;;;;;5048550;28;20445;-53
2022/05/21 01:09:22;;;;;;;13.80;6.10;;;11.10;99.90;;;;;;5033108;28;20441;-53
2022/05/21 01:11:47;;;;;;;7.97;5.00;;;11.10;99.90;;;;;;5041761;28;21118;-53
2022/05/21 01:14:15;;;;;;;6.23;5.00;;;11.00;1.00;;;;;;5041421;28;20195;-53
2022/05/21 01:16:42;;;;;;;8.10;4.73;;;11.00;1.00;;;;;;5033018;28;20645;-53
2022/05/21 01:19:09;;;;;;;15.60;5.60;;;11.00;1.00;;;;;;5042071;28;20437;-53
2022/05/21 01:21:37;;;;;;;10.90;5.60;;;11.00;1.00;;;;;;5039025;28;20429;-53
2022/05/21 01:24:05;;;;;;;13.57;5.40;;;11.00;1.00;;;;;;5045703;28;20436;-53
2022/05/21 01:26:31;;;;;;;10.87;5.70;;;11.00;1.00;;;;;;5045839;28;20953;-53
2022/05/21 01:28:57;;;;;;;13.97;5.50;;;10.90;1.00;;;;;;5044907;28;20452;-53
2022/05/21 01:31:23;;;;;;;9.67;5.23;;;10.90;1.00;;;;;;5034569;28;20186;-55
2022/05/21 01:33:49;;;;;;;12.80;4.90;;;10.90;1.00;;;;;;5042138;28;20440;-53
2022/05/21 01:36:15;;;;;;;9.17;5.10;;;10.90;1.00;;;;;;5046649;28;20226;-53
2022/05/21 01:38:42;;;;;;;8.87;5.70;;;10.80;95.50;;;;;;5034768;28;20556;-54
2022/05/21 01:41:09;;;;;;;10.03;5.83;;;10.90;98.90;;;;;;5044025;28;20261;-53
2022/05/21 01:46:20;;;;;;;13.23;5.70;;;10.80;99.90;;;;;;5049429;28;20447;-53
2022/05/21 01:48:46;;;;;;;11.30;5.53;;;10.90;99.90;;;;;;5036196;28;20440;-53
2022/05/21 01:51:12;;;;;;;8.70;5.20;;;10.80;99.90;;;;;;5031922;28;20194;-54
2022/05/21 01:53:39;;;;;;;6.77;4.93;;;10.80;99.90;;;;;;5041114;28;20949;-53
2022/05/21 01:56:05;;;;;;;7.63;5.47;;;10.80;99.90;;;;;;5031892;28;20966;-56
2022/05/21 01:58:32;;;;;;;11.00;5.20;;;10.80;1.00;;;;;;5042283;28;20440;-54
2022/05/21 02:00:58;;;;;;;7.73;5.07;;;10.80;99.90;;;;;;5039978;28;20433;-53
2022/05/21 02:03:24;;;;;;;6.63;5.50;;;10.80;1.00;;;;;;5042237;28;20436;-53
2022/05/21 02:05:50;;;;;;;13.70;6.30;;;10.90;1.00;;;;;;5042446;28;20853;-53
2022/05/21 02:08:17;;;;;;;10.00;6.17;;;11.00;99.90;;;;;;5037921;28;20450;-53
2022/05/21 02:10:44;;;;;;;11.43;6.50;;;11.00;99.90;;;;;;5036276;28;20190;-53
2022/05/21 02:13:16;;;;;;;13.27;7.10;;;11.10;1.00;;;;;;5032211;28;20486;-53
2022/05/21 02:15:43;;;;;;;9.20;6.80;;;11.10;1.00;;;;;;5040959;28;20559;-53
2022/05/21 02:18:09;;;;;;;15.60;7.20;;;11.20;1.00;;;;;;5047662;28;20441;-53
2022/05/21 02:20:35;;;;;;;9.53;7.30;;;11.20;99.90;;;;;;5048275;28;20518;-53
2022/05/21 02:23:00;;;;;;;12.00;7.87;;;11.30;99.90;;;;;;5037043;28;20803;-53
2022/05/21 02:25:26;;;;;;;9.60;7.63;;;11.30;1.00;;;;;;5039981;28;20226;-53
2022/05/21 02:27:51;;;;;;;16.60;7.60;;;11.40;1.00;;;;;;5037638;28;20186;-53
2022/05/21 02:30:17;;;;;;;11.53;7.13;;;11.40;99.90;;;;;;5046366;28;20195;-53
2022/05/21 02:32:42;;;;;;;12.73;6.23;;;11.50;1.00;;;;;;5035918;28;20961;-53
2022/05/21 02:35:08;;;;;;;10.33;6.37;;;11.50;99.90;;;;;;5034463;28;20676;-53
2022/05/21 02:40:19;;;;;;;7.83;5.70;;;11.50;1.00;;;;;;5027259;28;20680;-53
2022/05/21 02:42:45;;;;;;;10.03;5.80;;;11.50;1.00;;;;;;5038209;28;20425;-53
2022/05/21 02:45:15;;;;;;;10.67;6.30;;;11.40;1.00;;;;;;5039368;28;20687;-53
2022/05/21 02:47:41;;;;;;;10.53;6.00;;;11.40;1.00;;;;;;5045572;28;20445;-53
2022/05/21 02:50:10;;;;;;;10.13;6.23;;;11.40;1.00;;;;;;5028182;28;20446;-53
2022/05/21 02:52:36;;;;;;;10.47;5.47;;;11.50;99.90;;;;;;5030836;28;20175;-53
2022/05/21 02:55:03;;;;;;;10.40;7.60;;;11.50;99.90;;;;;;5032991;28;20456;-53
2022/05/21 02:57:28;;;;;;;11.70;5.67;;;11.40;99.90;;;;;;5030914;28;20421;-53
2022/05/21 02:59:54;;;;;;;7.40;5.93;;;11.50;99.90;;;;;;5032074;28;20440;-53
2022/05/21 03:02:19;;;;;;;10.53;6.20;;;11.50;99.90;;;;;;5030713;28;20187;-53
2022/05/21 03:04:45;;;;;;;13.30;6.77;;;11.50;99.90;;;;;;5030941;28;20501;-53
2022/05/21 03:07:11;;;;;;;9.27;5.73;;;11.50;99.90;;;;;;5030517;28;20265;-53
2022/05/21 03:12:21;;;;;;;10.67;5.57;;;11.50;99.90;;;;;;5011411;28;20808;-53
2022/05/21 03:14:47;;;;;;;10.47;5.57;;;11.50;99.90;;;;;;5014539;28;20449;-53
2022/05/21 03:17:12;;;;;;;8.43;5.20;;;11.50;99.90;;;;;;5030831;28;20186;-53
2022/05/21 03:19:38;;;;;;;8.47;4.73;;;11.50;99.90;;;;;;5029708;28;20191;-53
2022/05/21 03:22:04;;;;;;;6.00;5.17;;;11.60;99.90;;;;;;5034523;28;20183;-53
2022/05/21 03:24:30;;;;;;;7.80;5.17;;;11.60;99.90;;;;;;5039988;28;20433;-53
2022/05/21 03:26:56;;;;;;;9.70;4.93;;;11.60;99.90;;;;;;5034748;28;20438;-53
2022/05/21 03:29:23;;;;;;;12.53;5.40;;;11.50;99.90;;;;;;5034231;28;20428;-53
2022/05/21 03:31:48;;;;;;;6.97;5.03;;;11.50;99.90;;;;;;5038161;28;20441;-53
2022/05/21 03:34:14;;;;;;;10.20;5.10;;;11.60;99.90;;;;;;5034251;28;20814;-53
2022/05/21 03:36:39;;;;;;;7.37;5.17;;;11.60;99.90;;;;;;5033623;28;20211;-53
2022/05/21 03:39:05;;;;;;;8.00;5.60;;;11.60;99.90;;;;;;5034002;28;20179;-53
2022/05/21 03:41:31;;;;;;;8.80;5.60;;;11.60;99.90;;;;;;5039126;28;20191;-53
2022/05/21 03:43:57;;;;;;;9.23;5.00;;;11.60;99.90;;;;;;5033865;28;20182;-53
2022/05/21 03:46:23;;;;;;;8.73;5.77;;;11.70;66.90;;;;;;5036849;28;20490;-53
2022/05/21 03:48:50;;;;;;;10.13;5.30;;;11.60;80.40;;;;;;5033711;28;20989;-53
2022/05/21 03:51:16;;;;;;;11.33;5.77;;;11.70;78.80;;;;;;5035602;28;20437;-53
2022/05/21 03:53:41;;;;;;;7.27;5.10;;;11.60;54.60;;;;;;5033880;28;20421;-53
2022/05/21 03:56:07;;;;;;;6.90;5.30;;;11.60;21.50;;;;;;5033287;28;20457;-53
2022/05/21 03:58:33;;;;;;;8.93;5.40;;;11.60;77.80;;;;;;5033848;28;20187;-53
2022/05/21 04:00:59;;;;;;;9.47;5.40;;;11.60;1.00;;;;;;5034114;28;20445;-53
2022/05/21 04:03:25;;;;;;;11.27;6.00;;;11.60;19.00;;;;;;5043975;28;20214;-53
2022/05/21 04:05:53;;;;;;;11.00;5.77;;;11.60;16.50;;;;;;5033662;28;20652;-53
2022/05/21 04:08:19;;;;;;;12.33;6.43;;;11.60;54.30;;;;;;5033687;28;20445;-53
2022/05/21 04:10:46;;;;;;;9.63;5.73;;;11.60;37.00;;;;;;5039203;28;20444;-53
2022/05/21 04:13:12;;;;;;;13.53;7.20;;;11.60;2.10;;;;;;5039941;28;20239;-53
2022/05/21 04:15:38;;;;;;;8.90;6.00;;;11.60;15.50;;;;;;5044262;28;20480;-53
2022/05/21 04:18:04;;;;;;;8.67;6.13;;;11.60;1.00;;;;;;5033730;28;20266;-53
2022/05/21 04:20:30;;;;;;;10.53;6.90;;;11.60;18.80;;;;;;5036300;28;20194;-53
2022/05/21 04:22:55;;;;;;;12.37;6.87;;;11.70;20.10;;;;;;5053507;28;20729;-53
2022/05/21 04:25:21;;;;;;;11.70;7.40;;;11.70;3.90;;;;;;5046116;28;20540;-53
2022/05/21 04:27:47;;;;;;;16.37;7.57;;;11.80;17.90;;;;;;5033301;28;20304;-53
2022/05/21 04:30:20;;;;;;;14.73;8.10;;;11.70;11.50;;;;;;5037490;28;20453;-53
2022/05/21 04:32:46;;;;;;;10.20;8.13;;;11.80;17.30;;;;;;5037363;28;20535;-53
2022/05/21 04:35:13;;;;;;;16.50;8.70;;;11.80;7.20;;;;;;5038012;28;20472;-53
2022/05/21 04:37:39;;;;;;;15.00;9.87;;;11.80;23.40;;;;;;5036187;28;20441;-53
2022/05/21 04:40:09;;;;;;;11.60;8.23;;;11.90;21.10;;;;;;5048644;28;20511;-53
2022/05/21 04:42:35;;;;;;;17.70;9.87;;;12.00;1.00;;;;;;5040238;28;20444;-53
2022/05/21 04:45:03;;;;;;;13.17;8.93;;;11.90;6.10;;;;;;5032811;28;20437;-53
2022/05/21 04:47:28;;;;;;;20.40;11.63;;;11.90;71.90;;;;;;5033170;28;20579;-53
2022/05/21 04:49:54;;;;;;;19.60;12.23;;;12.00;35.60;;;;;;5032806;28;20520;-53
2022/05/21 04:52:19;;;;;;;19.53;11.70;;;12.00;21.30;;;;;;5032759;28;20906;-53
2022/05/21 04:54:45;;;;;;;16.93;11.73;;;11.90;58.70;;;;;;5042101;28;20194;-53
2022/05/21 04:57:10;;;;;;;20.33;12.63;;;12.00;80.40;;;;;;5033051;28;20198;-53
2022/05/21 04:59:36;;;;;;;17.67;13.13;;;12.10;69.00;;;;;;5032628;28;20237;-53
2022/05/21 05:02:02;;;;;;;22.27;14.57;;;12.10;42.90;;;;;;5032579;28;20184;-53
2022/05/21 05:04:27;;;;;;;22.50;15.70;;;12.10;60.40;;;;;;5041456;28;20668;-53
2022/05/21 05:06:53;;;;;;;24.27;16.40;;;12.10;27.80;;;;;;5032291;28;20851;-53
2022/05/21 05:09:22;;;;;;;23.90;18.03;;;12.20;1.00;;;;;;5032363;28;20187;-53
2022/05/21 05:11:49;;;;;;;28.20;19.30;;;12.20;15.80;;;;;;5034050;28;20230;-53
2022/05/21 05:14:15;;;;;;;24.70;19.00;;;12.20;7.20;;;;;;5045948;28;20513;-53
2022/05/21 05:16:40;;;;;;;29.00;19.50;;;12.20;17.70;;;;;;5032194;28;20576;-53
2022/05/21 05:19:06;;;;;;;30.60;20.97;;;12.20;35.90;;;;;;5032386;28;20180;-53
2022/05/21 05:21:32;;;;;;;31.00;20.87;;;12.20;74.90;;;;;;5031275;28;20661;-53
2022/05/21 05:23:57;;;;;;;28.00;20.60;;;12.20;70.40;;;;;;5032989;28;20239;-53
2022/05/21 05:26:23;;;;;;;30.17;19.63;;;12.30;53.80;;;;;;5038205;28;20195;-53
2022/05/21 05:28:49;;;;;;;34.00;20.93;;;12.30;22.40;;;;;;5033603;28;20191;-53
2022/05/21 05:31:15;;;;;;;32.93;20.90;;;12.30;38.60;;;;;;5032083;28;20785;-53
2022/05/21 05:33:40;;;;;;;31.80;21.20;;;12.30;99.90;;;;;;5031551;28;20902;-53
2022/05/21 05:36:06;;;;;;;34.03;21.63;;;12.30;88.40;;;;;;5034276;28;20225;-53
2022/05/21 05:38:32;;;;;;;37.07;21.43;;;12.40;61.70;;;;;;5032095;28;20187;-54
2022/05/21 05:40:57;;;;;;;31.43;21.50;;;12.40;46.30;;;;;;5032126;28;20434;-54
2022/05/21 05:43:23;;;;;;;33.73;21.87;;;12.40;46.20;;;;;;5031680;28;20193;-53
2022/05/21 05:45:51;;;;;;;33.03;23.10;;;12.40;86.60;;;;;;5034988;28;20187;-53
2022/05/21 05:48:17;;;;;;;34.57;22.17;;;12.30;99.90;;;;;;5031812;28;20230;-57
2022/05/21 05:50:43;;;;;;;30.50;21.10;;;12.40;99.90;;;;;;5031698;28;20417;-53
2022/05/21 05:53:08;;;;;;;34.87;21.33;;;12.30;99.90;;;;;;5031842;28;20440;-53
2022/05/21 05:55:35;;;;;;;34.83;22.10;;;12.30;99.90;;;;;;5036315;28;20229;-54
2022/05/21 05:59:48;;;;;;;35.63;22.37;;;12.40;1.00;;;;;;5028487;28;20213;-54
2022/05/21 06:00:47;;;;;;;39.40;24.13;;;12.40;1.00;;;;;;5030263;28;20426;-54
2022/05/21 06:03:12;;;;;;;32.70;23.40;;;12.30;1.00;;;;;;5037453;28;20774;-54
2022/05/21 06:05:38;;;;;;;36.30;23.60;;;12.30;1.00;;;;;;5031564;28;20213;-55
2022/05/21 06:08:05;;;;;;;34.23;22.83;;;12.20;69.80;;;;;;5031534;28;20541;-54
2022/05/21 06:10:37;;;;;;;34.83;24.47;;;12.20;99.90;;;;;;5029976;28;20274;-55
2022/05/21 06:13:04;;;;;;;34.50;24.57;;;12.10;81.90;;;;;;5032207;28;20501;-55
2022/05/21 06:15:29;;;;;;;35.90;23.47;;;12.10;1.00;;;;;;5038175;28;20967;-55
2022/05/21 06:17:55;;;;;;;35.93;22.63;;;12.10;8.90;;;;;;5031151;28;20432;-65
2022/05/21 06:20:24;;;;;;;34.07;23.33;;;12.10;99.90;;;;;;5030001;28;20558;-55
2022/05/21 06:22:50;;;;;;;32.33;22.30;;;12.10;1.00;;;;;;5030044;28;20540;-56
2022/05/21 06:25:19;;;;;;;36.80;23.20;;;12.20;1.00;;;;;;5036770;28;21092;-54
2022/05/21 06:27:47;;;;;;;37.30;25.33;;;12.30;1.00;;;;;;5031442;28;20409;-54
2022/05/21 06:30:14;;;;;;;43.67;25.57;;;12.30;1.00;;;;;;5030953;28;20449;-54
2022/05/21 06:32:39;;;;;;;42.03;26.90;;;12.40;99.90;;;;;;5039763;28;20436;-59
2022/05/21 06:35:07;;;;;;;39.90;26.80;;;12.50;1.00;;;;;;5028267;28;20951;-55
2022/05/21 06:37:32;;;;;;;39.50;26.20;;;12.60;1.00;;;;;;5035745;28;20186;-54
2022/05/21 06:39:58;;;;;;;40.10;26.30;;;12.90;31.40;;;;;;5031998;28;20935;-54
2022/05/21 06:42:24;;;;;;;40.53;24.80;;;13.20;99.90;;;;;;5040541;28;20547;-55
2022/05/21 06:44:51;;;;;;;37.53;25.13;;;13.40;1.00;;;;;;5034878;28;20215;-53
2022/05/21 06:47:16;;;;;;;38.57;25.40;;;13.30;1.00;;;;;;5036878;28;20186;-53
2022/05/21 06:49:42;;;;;;;39.43;26.23;;;13.40;1.00;;;;;;5041269;28;20907;-54
2022/05/21 06:52:07;;;;;;;37.03;24.63;;;13.40;1.00;;;;;;5031015;28;20245;-53
2022/05/21 06:54:33;;;;;;;38.17;26.00;;;13.40;1.00;;;;;;5024402;28;20793;-53
2022/05/21 06:56:58;;;;;;;35.93;25.30;;;13.40;1.00;;;;;;5035212;28;20189;-53
2022/05/21 06:59:24;;;;;;;42.40;25.60;;;13.40;1.00;;;;;;5036620;28;20191;-54
2022/05/21 07:01:50;;;;;;;37.30;24.53;;;13.50;99.90;;;;;;5042079;28;20187;-54
2022/05/21 07:04:16;;;;;;;44.63;25.87;;;13.60;99.90;;;;;;5036944;28;20234;-52
2022/05/21 07:09:27;;;;;;;35.27;24.33;;;13.50;99.90;;;;;;5030495;28;20209;-54
2022/05/21 07:11:52;;;;;;;43.37;24.40;;;13.60;99.90;;;;;;5037264;28;20578;-53
2022/05/21 07:14:19;;;;;;;32.77;23.53;;;13.80;99.90;;;;;;5039169;28;20971;-54
2022/05/21 07:16:45;;;;;;;38.13;21.67;;;14.10;99.90;;;;;;5034274;28;20214;-53
2022/05/21 07:19:11;;;;;;;28.90;20.60;;;14.30;44.30;;;;;;5032309;28;20464;-53
2022/05/21 07:21:37;;;;;;;35.47;20.80;;;14.50;1.00;;;;;;5033540;28;20525;-53
2022/05/21 07:24:04;;;;;;;34.30;21.23;;;14.60;1.00;;;;;;5028744;28;20441;-53
2022/05/21 07:26:29;;;;;;;32.60;21.03;;;14.80;1.00;;;;;;5039717;28;20448;-53
2022/05/21 07:28:57;;;;;;;33.73;20.10;;;15.10;1.00;;;;;;5039782;28;20413;-54
2022/05/21 07:31:22;;;;;;;29.30;20.10;;;15.30;1.00;;;;;;5034108;28;20617;-53
2022/05/21 07:33:48;;;;;;;26.73;19.23;;;15.50;1.00;;;;;;5034530;28;20425;-53
2022/05/21 07:36:14;;;;;;;30.07;20.73;;;15.40;1.00;;;;;;5033468;28;20207;-53
2022/05/21 07:38:39;;;;;;;28.77;19.10;;;15.30;1.00;;;;;;5032652;28;20187;-53
2022/05/21 07:41:06;;;;;;;27.13;17.60;;;15.40;1.00;;;;;;5034654;28;20179;-53
2022/05/21 07:43:31;;;;;;;23.53;16.07;;;15.60;99.90;;;;;;5035534;28;20896;-52
2022/05/21 07:45:58;;;;;;;22.17;16.43;;;15.70;1.00;;;;;;5033707;28;20445;-52
2022/05/21 07:48:24;;;;;;;26.03;16.87;;;15.80;99.90;;;;;;5034052;28;20191;-53
2022/05/21 07:50:53;;;;;;;28.13;16.50;;;15.80;99.90;;;;;;5037661;28;20939;-52
2022/05/21 07:53:27;;;;;;;28.47;15.83;;;16.20;99.90;;;;;;5034140;28;20500;-52
2022/05/21 07:55:55;;;;;;;26.10;15.70;;;16.40;99.90;;;;;;5034775;28;20471;-52
2022/05/21 07:58:23;;;;;;;23.93;14.40;;;16.40;99.90;;;;;;5049692;28;20939;-53
2022/05/21 08:00:49;;;;;;;25.47;14.30;;;16.30;99.90;;;;;;5040331;28;20784;-53
2022/05/21 08:03:15;;;;;;;22.40;13.90;;;16.10;99.90;;;;;;5037782;28;20444;-54
2022/05/21 08:05:42;;;;;;;20.70;14.87;;;15.80;99.90;;;;;;5032250;28;20789;-53
2022/05/21 08:08:09;;;;;;;24.20;14.07;;;15.60;1.00;;;;;;5033478;28;20504;-53
2022/05/21 08:10:36;;;;;;;16.80;11.90;;;15.40;1.00;;;;;;5036231;28;20463;-53
2022/05/21 08:13:02;;;;;;;24.73;13.17;;;15.10;1.00;;;;;;5043020;28;20571;-55
2022/05/21 08:15:28;;;;;;;22.10;12.53;;;14.80;1.00;;;;;;5033300;28;20607;-54
2022/05/21 08:17:53;;;;;;;18.73;12.80;;;14.60;1.00;;;;;;5031275;28;20525;-55
2022/05/21 08:20:19;;;;;;;20.80;11.93;;;14.40;1.00;;;;;;5035726;28;20194;-54
2022/05/21 08:28:15;;;;;;;18.03;11.10;;;14.00;99.90;;;;;;5039493;28;20429;-54
2022/05/21 08:30:42;;;;;;;20.63;9.47;;;14.40;1.00;;;;;;5034449;28;20451;-54
2022/05/21 08:33:09;;;;;;;15.80;7.23;;;14.80;99.90;;;;;;5041041;28;20459;-53
2022/05/21 08:35:38;;;;;;;11.13;7.70;;;15.30;55.80;;;;;;5033478;28;20931;-53
2022/05/21 08:38:07;;;;;;;16.87;6.70;;;15.80;1.00;;;;;;5031994;28;20418;-53
2022/05/21 08:40:43;;;;;;;12.53;5.40;;;16.40;1.00;;;;;;5031681;28;20472;-53
2022/05/21 08:43:50;;;;;;;8.03;5.00;;;16.80;1.00;;;;;;5033139;28;20406;-53
2022/05/21 08:46:43;;;;;;;8.40;4.17;;;17.30;1.00;;;;;;5033793;28;20469;-53
2022/05/21 08:49:33;;;;;;;9.70;3.97;;;17.20;1.00;;;;;;5027043;28;20533;-53
2022/05/21 08:52:05;;;;;;;9.20;3.50;;;16.60;1.00;;;;;;5033961;28;20541;-53
2022/05/21 08:54:36;;;;;;;7.13;3.67;;;16.10;1.00;;;;;;5044401;28;20942;-65
2022/05/21 08:57:04;;;;;;;3.80;2.67;;;15.80;1.00;;;;;;5032959;28;21252;-54
2022/05/21 08:59:35;;;;;;;9.47;3.03;;;15.50;1.00;;;;;;5051033;28;20452;-54
2022/05/21 09:02:01;;;;;;;5.50;3.07;;;15.20;1.00;;;;;;5052775;28;20440;-54
2022/05/21 09:04:30;;;;;;;6.57;3.30;;;15.10;1.00;;;;;;5049889;28;20946;-54
2022/05/21 09:07:00;;;;;;;7.47;3.17;;;15.00;9.90;;;;;;5042777;28;20187;-54
2022/05/21 09:09:46;;;;;;;4.00;3.17;;;15.20;1.00;;;;;;5037665;28;20445;-54
2022/05/21 09:12:21;;;;;;;10.13;3.40;;;15.30;1.00;;;;;;5032380;28;20466;-54
2022/05/21 09:14:52;;;;;;;4.83;3.10;;;15.40;1.00;;;;;;5031547;28;20444;-53
2022/05/21 09:17:24;;;;;;;5.47;3.50;;;15.40;1.00;;;;;;5030485;28;20452;-53
2022/05/21 09:19:57;;;;;;;8.03;3.30;;;15.20;1.00;;;;;;5032160;28;20999;-54
2022/05/21 09:22:23;;;;;;;9.17;3.03;;;15.00;1.00;;;;;;5032331;28;20472;-52
2022/05/21 09:25:00;;;;;;;5.40;3.13;;;14.80;1.00;;;;;;5032029;28;20429;-53
2022/05/21 09:27:30;;;;;;;11.97;3.13;;;14.70;1.00;;;;;;5040644;28;20480;-53
2022/05/21 09:30:34;;;;;;;7.67;3.17;;;14.60;1.00;;;;;;5033146;28;20442;-53
2022/05/21 09:33:25;;;;;;;10.10;3.30;;;14.80;11.70;;;;;;5041781;28;20432;-53
2022/05/21 09:35:56;;;;;;;3.87;2.27;;;15.60;1.00;;;;;;5049950;28;20518;-53
2022/05/21 09:38:31;;;;;;;8.53;3.17;;;16.00;1.00;;;;;;5029946;28;20927;-53
2022/05/21 09:41:16;;;;;;;5.80;2.20;;;16.30;1.00;;;;;;5031974;28;20487;-53
2022/05/21 09:46:40;;;;;;;4.57;2.13;;;17.40;99.90;;;;;;5028430;28;20539;-52
2022/05/21 09:49:19;;;;;;;7.07;2.07;;;17.80;99.90;;;;;;5041566;28;20822;-52
2022/05/21 09:52:00;;;;;;;10.70;1.90;;;17.70;99.90;;;;;;5042819;28;20448;-52
2022/05/21 09:54:38;;;;;;;5.20;1.70;;;17.10;99.90;;;;;;5034987;28;20532;-53
2022/05/21 09:57:04;;;;;;;5.27;2.00;;;16.80;99.90;;;;;;5031162;28;20496;-52
2022/05/21 09:59:33;;;;;;;7.83;2.00;;;17.50;99.90;;;;;;5032262;28;20911;-52
2022/05/21 10:02:02;;;;;;;4.30;1.77;;;17.60;99.90;;;;;;5035123;28;21092;-51
2022/05/21 10:04:33;;;;;;;7.03;1.90;;;17.10;99.90;;;;;;5030919;28;20430;-52
2022/05/21 10:10:59;;;;;;;5.43;2.20;;;16.70;99.90;;;;;;5031548;28;20432;-52
2022/05/21 10:13:39;;;;;;;6.80;2.40;;;17.60;99.90;;;;;;5031350;28;20481;-52
2022/05/21 10:16:35;;;;;;;11.13;3.00;;;17.90;99.90;;;;;;5031344;28;20556;-52
2022/05/21 10:19:30;;;;;;;5.30;2.50;;;18.40;99.90;;;;;;5019273;28;20430;-51
2022/05/21 10:22:11;;;;;;;8.90;2.20;;;18.30;99.90;;;;;;5030249;28;20442;-52
2022/05/21 10:24:55;;;;;;;9.50;2.93;;;17.80;99.90;;;;;;5029832;28;20441;-52
2022/05/21 10:27:48;;;;;;;17.57;2.67;;;16.90;99.90;;;;;;5028540;28;20926;-52
2022/05/21 10:30:39;;;;;;;7.97;2.77;;;17.30;99.90;;;;;;5030163;28;20441;-52
2022/05/21 10:33:24;;;;;;;10.97;2.20;;;18.00;99.90;;;;;;5011508;28;20481;-52
2022/05/21 10:36:12;;;;;;;7.00;2.10;;;18.70;99.90;;;;;;5013334;28;20454;-52
2022/05/21 10:39:01;;;;;;;5.50;2.27;;;19.20;99.90;;;;;;5030951;28;20421;-52
2022/05/21 10:41:35;;;;;;;7.00;2.10;;;18.70;99.90;;;;;;5030784;28;20461;-52
2022/05/21 10:44:22;;;;;;;8.70;2.37;;;18.10;99.90;;;;;;5031042;28;20906;-52
2022/05/21 10:46:59;;;;;;;4.30;2.20;;;17.60;99.90;;;;;;5030561;28;20769;-53
2022/05/21 10:49:49;;;;;;;10.43;2.53;;;17.40;99.90;;;;;;5031007;28;21262;-52
2022/05/21 10:52:52;;;;;;;13.70;2.60;;;17.20;99.90;;;;;;5029864;28;20827;-52
2022/05/21 10:55:28;;;;;;;20.87;3.23;;;16.90;99.90;;;;;;5026232;28;21025;-52
2022/05/21 10:58:06;;;;;;;7.53;2.23;;;16.80;99.90;;;;;;5030902;28;20479;-52
2022/05/21 11:00:45;;;;;;;5.43;2.30;;;17.40;99.90;;;;;;5030961;28;20509;-52
2022/05/21 11:03:38;;;;;;;5.63;2.10;;;18.10;99.90;;;;;;5030782;28;20409;-52
2022/05/21 11:06:24;;;;;;;7.70;2.10;;;19.00;99.90;;;;;;5030815;28;20485;-52
2022/05/21 11:09:02;;;;;;;5.53;2.60;;;20.00;99.90;;;;;;5030866;28;20516;-52
2022/05/21 11:11:39;;;;;;;7.57;2.37;;;20.00;99.90;;;;;;5030791;28;20461;-52
2022/05/21 11:14:14;;;;;;;11.73;1.90;;;20.50;99.90;;;;;;5030399;28;20425;-51
2022/05/21 11:16:41;;;;;;;7.70;2.00;;;19.80;99.90;;;;;;5030156;28;20469;-52
2022/05/21 11:19:17;;;;;;;5.30;2.17;;;19.20;99.90;;;;;;5030814;28;20446;-52
2022/05/21 11:22:02;;;;;;;8.60;2.37;;;19.40;99.90;;;;;;5030494;28;20413;-52
2022/05/21 11:24:37;;;;;;;7.53;2.17;;;20.30;99.90;;;;;;5030844;28;20447;-52
2022/05/21 11:27:11;;;;;;;2.80;1.53;;;21.40;99.90;;;;;;5030676;28;20440;-52
2022/05/21 11:29:58;;;;;;;6.40;1.80;;;21.60;99.90;;;;;;5030692;28;20517;-51
2022/05/21 11:38:20;;;;;;;6.47;1.50;;;19.90;99.90;;;;;;5030815;28;20481;-51
2022/05/21 11:41:25;;;;;;;2.20;1.33;;;19.30;99.90;;;;;;5031723;28;20412;-53
2022/05/21 11:47:06;;;;;;;4.33;1.67;;;18.00;99.90;;;;;;5032277;28;20431;-51
2022/05/21 11:49:40;;;;;;;8.80;2.00;;;17.70;99.90;;;;;;5034040;28;20537;-51
2022/05/21 11:52:31;;;;;;;18.20;7.40;;;17.90;99.90;;;;;;5033581;28;20440;-51
2022/05/21 11:54:56;;;;;;;9.50;3.37;;;18.30;99.90;;;;;;5034031;28;21034;-51
2022/05/21 11:57:43;;;;;;;7.43;1.90;;;17.90;99.90;;;;;;5033836;28;20489;-51
2022/05/21 12:00:17;;;;;;;11.47;2.77;;;18.00;99.90;;;;;;5033901;28;20589;-51
2022/05/21 12:03:06;;;;;;;7.83;1.50;;;19.00;99.90;;;;;;5033947;28;20462;-52
2022/05/21 12:08:21;;;;;;;5.17;1.30;;;19.40;99.90;;;;;;5031760;28;20446;-51
2022/05/21 12:11:06;;;;;;;3.80;1.50;;;19.40;99.90;;;;;;5033552;28;20457;-52
2022/05/21 12:13:34;;;;;;;5.87;1.90;;;20.10;99.90;;;;;;5033748;28;20950;-52
2022/05/21 12:16:16;;;;;;;4.33;1.50;;;21.10;99.90;;;;;;5033143;28;20558;-52
2022/05/21 12:18:46;;;;;;;5.33;1.50;;;21.20;99.90;;;;;;5033440;28;20426;-52
2022/05/21 12:21:43;;;;;;;6.20;1.90;;;20.30;99.90;;;;;;5033558;28;20448;-52
2022/05/21 12:24:33;;;;;;;9.03;1.70;;;20.00;99.90;;;;;;5033215;28;20532;-51
2022/05/21 12:27:21;;;;;;;6.33;1.43;;;20.80;99.90;;;;;;5033621;28;20426;-52
2022/05/21 12:29:49;;;;;;;4.00;1.27;;;21.00;99.90;;;;;;5033491;28;20402;-51
2022/05/21 12:32:21;;;;;;;5.20;1.37;;;20.00;99.90;;;;;;5033186;28;20489;-51
2022/05/21 12:35:05;;;;;;;3.20;1.90;;;19.40;99.90;;;;;;5038027;28;20488;-51
2022/05/21 12:37:44;;;;;;;9.10;1.67;;;18.70;99.90;;;;;;5013410;28;20450;-51
2022/05/21 12:40:29;;;;;;;4.83;1.60;;;18.70;99.90;;;;;;5032202;28;20414;-51
2022/05/21 12:43:06;;;;;;;10.67;1.53;;;18.50;99.90;;;;;;5053047;28;20607;-51
2022/05/21 12:45:44;;;;;;;10.00;1.40;;;18.20;99.90;;;;;;5052978;28;20728;-51
2022/05/21 12:48:23;;;;;;;7.23;1.57;;;17.90;99.90;;;;;;5052898;28;20859;-51
2022/05/21 12:51:00;;;;;;;6.80;1.60;;;18.10;99.90;;;;;;5052874;28;20464;-51
2022/05/21 12:53:41;;;;;;;6.93;1.77;;;18.50;99.90;;;;;;5033250;28;20793;-51
2022/05/21 12:56:15;;;;;;;6.17;1.70;;;19.80;99.90;;;;;;5032770;28;21275;-51
2022/05/21 12:58:41;;;;;;;5.57;1.57;;;21.10;99.90;;;;;;5032856;28;20453;-51
2022/05/21 13:01:07;;;;;;;7.37;1.83;;;22.10;99.90;;;;;;5032825;28;20834;-51
2022/05/21 13:03:35;;;;;;;5.17;1.40;;;21.60;99.90;;;;;;5036005;28;20171;-51
2022/05/21 13:06:04;;;;;;;4.70;1.40;;;20.50;99.90;;;;;;5033037;28;20180;-51
2022/05/21 13:08:33;;;;;;;4.83;1.30;;;19.40;99.90;;;;;;5032634;28;20414;-51
2022/05/21 13:11:06;;;;;;;8.73;1.50;;;19.20;99.90;;;;;;5032596;28;20421;-51
2022/05/21 13:13:35;;;;;;;6.80;1.67;;;20.00;99.90;;;;;;5032544;28;20529;-51
2022/05/21 13:16:04;;;;;;;8.03;2.00;;;20.00;99.90;;;;;;5032528;28;20457;-51
2022/05/21 13:19:06;;;;;;;7.03;2.07;;;19.50;99.90;;;;;;5032238;28;20768;-51
2022/05/21 13:21:56;;;;;;;6.03;1.43;;;19.80;99.90;;;;;;5032126;28;20429;-52
2022/05/21 13:24:47;;;;;;;5.53;1.60;;;21.10;99.90;;;;;;5012677;28;20415;-52
2022/05/21 13:27:16;;;;;;;11.40;1.40;;;20.90;99.90;;;;;;5029355;28;20432;-51
2022/05/21 13:29:42;;;;;;;5.97;1.50;;;20.50;99.90;;;;;;5032274;28;20520;-52
2022/05/21 13:32:19;;;;;;;7.17;1.90;;;20.20;99.90;;;;;;5031910;28;20516;-51
2022/05/21 13:34:44;;;;;;;7.93;2.00;;;19.20;99.90;;;;;;5031810;28;20989;-51
2022/05/21 13:37:11;;;;;;;7.77;2.10;;;19.40;99.90;;;;;;5032088;28;20457;-51